Time;durP1;ratioP1;P1;durP2;ratioP2;P2;SDS_P1;SDS_P2;PMS_P1;PMS_P2;Temp;Humidity;BMP_temperature;BMP_pressure;BME280_temperature;BME280_humidity;BME280_pressure;Samples;Min_cycle;Max_cycle;Signal;HPM_P1;HPM_P2
2023/04/09 00:01:49;;;;;;;26.40;16.70;;;10.30;99.90;;;;;;4172868;28;20488;-71
2023/04/09 00:03:49;;;;;;;31.85;19.30;;;10.30;99.90;;;;;;4174558;28;20048;-70
2023/04/09 00:05:50;;;;;;;25.75;16.73;;;10.30;99.90;;;;;;4169416;28;20033;-70
2023/04/09 00:07:51;;;;;;;29.75;18.15;;;10.30;99.90;;;;;;4167447;28;20434;-70
2023/04/09 00:09:51;;;;;;;29.05;17.98;;;10.30;99.90;;;;;;4170311;28;20045;-70
2023/04/09 00:11:52;;;;;;;27.95;17.58;;;10.30;99.90;;;;;;4174998;28;20428;-71
2023/04/09 00:13:52;;;;;;;27.35;16.95;;;10.20;99.90;;;;;;4166915;28;20032;-70
2023/04/09 00:15:53;;;;;;;25.75;17.15;;;10.20;99.90;;;;;;4170768;28;20040;-70
2023/04/09 00:17:55;;;;;;;26.45;16.75;;;10.20;99.90;;;;;;4175600;28;20037;-70
2023/04/09 00:19:55;;;;;;;25.48;16.80;;;10.20;99.90;;;;;;4170629;28;20040;-69
2023/04/09 00:21:56;;;;;;;30.38;18.05;;;10.10;99.90;;;;;;4170482;28;20037;-70
2023/04/09 00:23:56;;;;;;;36.00;21.38;;;10.00;99.90;;;;;;4168391;28;20036;-70
2023/04/09 00:25:57;;;;;;;32.65;20.38;;;9.80;99.90;;;;;;4167026;28;20729;-69
2023/04/09 00:27:58;;;;;;;35.38;21.85;;;9.60;99.90;;;;;;4169881;28;20045;-70
2023/04/09 00:29:58;;;;;;;36.17;22.05;;;9.40;99.90;;;;;;4166545;28;20033;-68
2023/04/09 00:31:59;;;;;;;31.75;19.40;;;9.30;99.90;;;;;;4167640;28;20393;-69
2023/04/09 00:34:00;;;;;;;35.40;19.98;;;9.20;99.90;;;;;;4171658;28;20511;-70
2023/04/09 00:36:00;;;;;;;36.13;20.45;;;9.10;99.90;;;;;;4169246;28;20056;-70
2023/04/09 00:38:01;;;;;;;33.05;19.80;;;9.10;99.90;;;;;;4170993;28;20580;-70
2023/04/09 00:40:02;;;;;;;35.50;21.60;;;9.10;99.90;;;;;;4171972;28;20029;-71
2023/04/09 00:42:03;;;;;;;37.08;21.23;;;9.00;99.90;;;;;;4174462;28;20045;-70
2023/04/09 00:44:03;;;;;;;31.13;19.20;;;9.00;99.90;;;;;;4172008;28;20047;-70
2023/04/09 00:46:04;;;;;;;31.73;18.70;;;9.00;99.90;;;;;;4170688;28;20037;-70
2023/04/09 00:48:06;;;;;;;32.30;20.02;;;9.00;99.90;;;;;;4170209;28;20099;-70
2023/04/09 00:50:07;;;;;;;37.05;20.02;;;8.90;99.90;;;;;;4174420;28;20043;-70
2023/04/09 00:52:08;;;;;;;32.97;20.08;;;8.80;99.90;;;;;;4168441;28;20029;-70
2023/04/09 00:54:09;;;;;;;34.25;21.15;;;8.80;99.90;;;;;;4167583;28;20072;-70
2023/04/09 00:56:12;;;;;;;35.83;20.75;;;8.70;99.90;;;;;;4161110;28;20038;-70
2023/04/09 00:58:13;;;;;;;36.70;21.45;;;8.60;99.90;;;;;;4166567;28;20030;-70
2023/04/09 01:00:14;;;;;;;36.17;21.33;;;8.60;99.90;;;;;;4174436;28;20446;-71
2023/04/09 01:02:15;;;;;;;34.45;19.90;;;8.60;99.90;;;;;;4176496;28;20080;-71
2023/04/09 01:04:15;;;;;;;32.55;19.25;;;8.60;99.90;;;;;;4174969;28;20384;-70
2023/04/09 01:06:25;;;;;;;31.23;18.90;;;8.60;99.90;;;;;;4174126;28;20037;-70
2023/04/09 01:08:57;;;;;;;32.50;18.08;;;8.60;99.90;;;;;;4173192;28;20040;-70
2023/04/09 01:11:05;;;;;;;27.15;16.52;;;8.80;99.90;;;;;;4173356;28;20112;-70
2023/04/09 01:13:29;;;;;;;30.52;17.50;;;8.80;99.90;;;;;;4170907;28;20057;-71
2023/04/09 01:15:35;;;;;;;29.63;18.20;;;8.90;99.90;;;;;;4169949;28;20095;-70
2023/04/09 01:17:51;;;;;;;29.17;17.75;;;9.00;99.90;;;;;;4173532;28;20045;-71
2023/04/09 01:20:17;;;;;;;31.15;19.13;;;9.00;99.90;;;;;;4171931;28;20041;-71
2023/04/09 01:22:31;;;;;;;28.38;17.63;;;9.10;99.90;;;;;;4170331;28;20053;-70
2023/04/09 01:24:56;;;;;;;36.33;22.10;;;9.10;99.90;;;;;;4171250;28;20025;-71
2023/04/09 01:27:06;;;;;;;34.97;21.10;;;9.00;99.90;;;;;;4165913;28;20049;-70
2023/04/09 01:29:08;;;;;;;40.25;23.45;;;9.00;99.90;;;;;;4173849;28;20030;-70
2023/04/09 01:31:17;;;;;;;37.33;22.58;;;8.90;99.90;;;;;;4168879;28;20029;-69
2023/04/09 01:33:19;;;;;;;37.72;24.10;;;8.90;99.90;;;;;;4175300;28;20042;-70
2023/04/09 01:35:20;;;;;;;39.45;24.23;;;8.80;99.90;;;;;;4171298;28;20057;-71
2023/04/09 01:37:22;;;;;;;40.22;24.02;;;8.80;99.90;;;;;;4172940;28;20029;-71
2023/04/09 01:39:23;;;;;;;39.95;24.90;;;8.80;99.90;;;;;;4170039;28;20086;-71
2023/04/09 01:41:25;;;;;;;43.47;25.35;;;8.80;99.90;;;;;;4174301;28;20389;-71
2023/04/09 01:43:26;;;;;;;46.65;26.35;;;8.70;99.90;;;;;;4173146;28;20033;-69
2023/04/09 01:45:27;;;;;;;37.53;23.02;;;8.60;99.90;;;;;;4166036;28;20038;-69
2023/04/09 01:47:29;;;;;;;36.97;23.30;;;8.70;99.90;;;;;;4171028;28;20064;-70
2023/04/09 01:49:30;;;;;;;43.13;24.07;;;8.60;99.90;;;;;;4169191;28;20063;-69
2023/04/09 01:51:32;;;;;;;41.10;24.15;;;8.50;99.90;;;;;;4173248;28;21125;-70
2023/04/09 01:53:32;;;;;;;40.47;24.05;;;8.40;99.90;;;;;;4170611;28;20485;-71
2023/04/09 01:55:33;;;;;;;31.98;19.83;;;8.60;99.90;;;;;;4170193;28;20036;-70
2023/04/09 01:57:33;;;;;;;38.90;22.88;;;8.50;99.90;;;;;;4168846;28;20033;-70
2023/04/09 01:59:34;;;;;;;36.88;21.67;;;8.40;99.90;;;;;;4173800;28;20029;-70
2023/04/09 02:01:45;;;;;;;41.35;23.25;;;8.40;99.90;;;;;;4173683;28;20083;-70
2023/04/09 02:03:50;;;;;;;39.03;21.65;;;8.30;99.90;;;;;;4173839;28;20392;-70
2023/04/09 02:06:10;;;;;;;31.88;19.25;;;8.20;99.90;;;;;;4172530;28;20040;-70
2023/04/09 02:08:13;;;;;;;32.50;18.88;;;8.20;99.90;;;;;;4166744;28;20120;-71
2023/04/09 02:10:16;;;;;;;35.00;20.35;;;8.00;99.90;;;;;;4169611;28;20377;-70
2023/04/09 02:12:17;;;;;;;34.95;20.42;;;8.00;99.90;;;;;;4173770;28;20041;-70
2023/04/09 02:14:20;;;;;;;39.05;21.90;;;7.80;99.90;;;;;;4175436;28;20034;-70
2023/04/09 02:16:21;;;;;;;34.33;20.35;;;7.80;99.90;;;;;;4173861;28;20033;-70
2023/04/09 02:18:27;;;;;;;39.95;21.40;;;7.70;99.90;;;;;;4165804;28;20037;-70
2023/04/09 02:20:28;;;;;;;33.97;19.52;;;7.60;99.90;;;;;;4171632;28;20065;-69
2023/04/09 02:22:29;;;;;;;40.45;20.60;;;7.60;99.90;;;;;;4168549;28;20030;-69
2023/04/09 02:24:29;;;;;;;35.53;20.50;;;7.70;99.90;;;;;;4172839;28;20116;-68
2023/04/09 02:26:30;;;;;;;36.08;21.75;;;7.70;99.90;;;;;;4170189;28;20061;-69
2023/04/09 02:28:30;;;;;;;37.22;21.40;;;7.70;99.90;;;;;;4172261;28;20393;-70
2023/04/09 02:30:31;;;;;;;36.42;21.52;;;7.70;99.90;;;;;;4176501;28;20109;-69
2023/04/09 02:32:31;;;;;;;38.78;22.52;;;7.70;99.90;;;;;;4175169;28;20162;-70
2023/04/09 02:34:32;;;;;;;37.65;21.92;;;7.60;99.90;;;;;;4173914;28;20037;-69
2023/04/09 02:36:33;;;;;;;35.40;20.20;;;7.60;99.90;;;;;;4173702;28;20090;-70
2023/04/09 02:38:33;;;;;;;38.25;20.85;;;7.60;99.90;;;;;;4169526;28;20496;-70
2023/04/09 02:40:34;;;;;;;38.67;22.17;;;7.60;99.90;;;;;;4172830;28;20036;-69
2023/04/09 02:42:35;;;;;;;43.35;23.38;;;7.60;99.90;;;;;;4167887;28;20053;-70
2023/04/09 02:44:35;;;;;;;38.45;22.33;;;7.60;99.90;;;;;;4173259;28;20060;-69
2023/04/09 02:46:37;;;;;;;38.55;21.52;;;7.50;99.90;;;;;;4168105;28;20037;-69
2023/04/09 02:48:38;;;;;;;45.28;23.52;;;7.50;99.90;;;;;;4168791;28;20534;-70
2023/04/09 02:50:39;;;;;;;36.60;20.70;;;7.50;99.90;;;;;;4171193;28;20100;-70
2023/04/09 02:52:39;;;;;;;38.28;21.75;;;7.50;99.90;;;;;;4169160;28;20029;-70
2023/04/09 02:54:40;;;;;;;39.83;21.38;;;7.40;99.90;;;;;;4173005;28;20058;-70
2023/04/09 02:56:40;;;;;;;35.95;20.80;;;7.40;99.90;;;;;;4166105;28;20044;-70
2023/04/09 02:58:41;;;;;;;37.05;21.17;;;7.40;99.90;;;;;;4173229;28;20116;-70
2023/04/09 03:00:42;;;;;;;39.95;22.45;;;7.30;99.90;;;;;;4169828;28;20091;-70
2023/04/09 03:02:42;;;;;;;35.63;22.02;;;7.20;99.90;;;;;;4172658;28;20021;-70
2023/04/09 03:04:43;;;;;;;38.30;20.92;;;7.20;99.90;;;;;;4168113;28;20171;-70
2023/04/09 03:06:43;;;;;;;34.10;20.60;;;7.20;99.90;;;;;;4168400;28;20496;-69
2023/04/09 03:08:44;;;;;;;38.20;21.17;;;7.20;99.90;;;;;;4170402;28;20480;-70
2023/04/09 03:10:45;;;;;;;38.95;21.52;;;7.20;99.90;;;;;;4172444;28;20029;-69
2023/04/09 03:12:46;;;;;;;36.97;21.27;;;7.10;99.90;;;;;;4168071;28;20044;-70
2023/04/09 03:14:47;;;;;;;41.45;23.45;;;7.00;99.90;;;;;;4164945;28;20041;-70
2023/04/09 03:16:47;;;;;;;36.10;20.75;;;7.00;99.90;;;;;;4167658;28;20021;-69
2023/04/09 03:18:48;;;;;;;34.50;19.33;;;7.00;99.90;;;;;;4170933;28;20033;-70
2023/04/09 03:20:49;;;;;;;33.15;19.30;;;7.00;99.90;;;;;;4168151;28;20061;-69
2023/04/09 03:22:49;;;;;;;34.13;20.38;;;7.10;99.90;;;;;;4173185;28;20112;-69
2023/04/09 03:24:50;;;;;;;36.83;20.45;;;7.00;99.90;;;;;;4169698;28;20041;-70
2023/04/09 03:26:50;;;;;;;34.13;19.48;;;7.00;99.90;;;;;;4168702;28;20026;-69
2023/04/09 03:28:51;;;;;;;37.97;21.27;;;7.10;99.90;;;;;;4174855;28;20039;-69
2023/04/09 03:30:51;;;;;;;40.60;22.35;;;7.00;99.90;;;;;;4168948;28;20092;-69
2023/04/09 03:32:52;;;;;;;39.60;21.88;;;7.00;99.90;;;;;;4175064;28;20017;-69
2023/04/09 03:34:52;;;;;;;41.47;23.10;;;7.00;99.90;;;;;;4167449;28;20040;-69
2023/04/09 03:36:53;;;;;;;38.72;22.20;;;6.90;99.90;;;;;;4171859;28;20033;-69
2023/04/09 03:38:53;;;;;;;38.08;22.55;;;6.90;99.90;;;;;;4163255;28;20041;-69
2023/04/09 03:40:55;;;;;;;42.95;22.38;;;6.90;99.90;;;;;;4169508;28;20357;-69
2023/04/09 03:42:55;;;;;;;39.95;22.40;;;6.90;99.90;;;;;;4176532;28;20036;-69
2023/04/09 03:44:56;;;;;;;38.05;21.45;;;6.80;99.90;;;;;;4164885;28;20033;-69
2023/04/09 03:46:56;;;;;;;39.65;21.90;;;6.80;99.90;;;;;;4173381;28;20103;-69
2023/04/09 03:48:57;;;;;;;34.25;19.38;;;6.80;99.90;;;;;;4166154;28;20080;-67
2023/04/09 03:50:57;;;;;;;33.95;18.70;;;6.80;99.90;;;;;;4174632;28;20029;-68
2023/04/09 03:52:58;;;;;;;29.92;17.52;;;6.90;99.90;;;;;;4172970;28;20029;-68
2023/04/09 03:54:59;;;;;;;33.97;19.35;;;6.90;99.90;;;;;;4169339;28;20039;-68
2023/04/09 03:57:00;;;;;;;33.47;18.30;;;7.00;99.90;;;;;;4175378;28;20106;-68
2023/04/09 03:59:00;;;;;;;32.22;18.85;;;7.00;99.90;;;;;;4171671;28;20424;-67
2023/04/09 04:01:01;;;;;;;31.67;18.38;;;7.10;99.90;;;;;;4161081;28;20094;-69
2023/04/09 04:03:02;;;;;;;41.50;22.67;;;7.10;99.90;;;;;;4171363;28;20025;-68
2023/04/09 04:05:02;;;;;;;41.65;23.58;;;7.00;99.90;;;;;;4174304;28;20036;-70
2023/04/09 04:07:03;;;;;;;45.15;24.77;;;6.90;99.90;;;;;;4166084;28;20075;-69
2023/04/09 04:09:04;;;;;;;48.72;24.73;;;6.80;99.90;;;;;;4167629;28;20377;-68
2023/04/09 04:11:04;;;;;;;49.00;25.73;;;6.70;99.90;;;;;;4164621;28;20081;-68
2023/04/09 04:13:07;;;;;;;42.58;23.15;;;6.60;99.90;;;;;;4170194;28;20061;-68
2023/04/09 04:15:08;;;;;;;41.13;22.90;;;6.60;99.90;;;;;;4163083;28;20033;-69
2023/04/09 04:17:09;;;;;;;41.05;22.25;;;6.60;99.90;;;;;;4170808;28;20037;-68
2023/04/09 04:19:10;;;;;;;40.23;21.97;;;6.60;99.90;;;;;;4164636;28;20060;-68
2023/04/09 04:21:14;;;;;;;38.78;20.88;;;6.50;99.90;;;;;;4174121;28;20036;-69
2023/04/09 04:23:15;;;;;;;35.35;19.70;;;6.50;99.90;;;;;;4174483;28;20025;-69
2023/04/09 04:25:15;;;;;;;39.20;20.70;;;6.50;99.90;;;;;;4173516;28;20121;-69
2023/04/09 04:27:16;;;;;;;37.53;20.80;;;6.40;99.90;;;;;;4162852;28;20043;-68
2023/04/09 04:29:17;;;;;;;37.75;20.10;;;6.50;99.90;;;;;;4171707;28;20532;-69
2023/04/09 04:31:17;;;;;;;36.85;19.40;;;6.50;99.90;;;;;;4169929;28;20043;-69
2023/04/09 04:33:18;;;;;;;35.25;19.88;;;6.50;99.90;;;;;;4171944;28;20033;-69
2023/04/09 04:35:20;;;;;;;35.85;20.05;;;6.50;99.90;;;;;;4171431;28;20033;-69
2023/04/09 04:37:21;;;;;;;32.88;18.73;;;6.50;99.90;;;;;;4166840;28;20084;-69
2023/04/09 04:39:21;;;;;;;32.22;19.17;;;6.50;99.90;;;;;;4168839;28;20419;-68
2023/04/09 04:41:22;;;;;;;34.72;18.63;;;6.50;99.90;;;;;;4163590;28;20029;-69
2023/04/09 04:43:22;;;;;;;34.53;17.95;;;6.60;99.90;;;;;;4166782;28;20031;-69
2023/04/09 04:45:23;;;;;;;33.20;18.73;;;6.70;99.90;;;;;;4167648;28;20114;-69
2023/04/09 04:47:24;;;;;;;33.00;18.08;;;6.80;99.90;;;;;;4167029;28;20033;-69
2023/04/09 04:49:24;;;;;;;35.40;18.83;;;6.80;99.90;;;;;;4167988;28;20068;-69
2023/04/09 04:51:26;;;;;;;34.92;19.98;;;6.90;99.90;;;;;;4163114;28;20040;-69
2023/04/09 04:53:27;;;;;;;34.33;18.52;;;6.90;99.90;;;;;;4173776;28;20029;-69
2023/04/09 04:55:28;;;;;;;33.53;19.48;;;7.00;99.90;;;;;;4172802;28;20049;-69
2023/04/09 04:57:28;;;;;;;32.70;18.08;;;7.00;99.90;;;;;;4172660;28;20507;-68
2023/04/09 04:59:29;;;;;;;32.72;18.13;;;7.10;99.90;;;;;;4166902;28;20041;-67
2023/04/09 05:01:29;;;;;;;31.23;17.45;;;7.10;99.90;;;;;;4168661;28;20036;-68
2023/04/09 05:03:30;;;;;;;32.13;18.35;;;7.10;99.90;;;;;;4171436;28;20037;-69
2023/04/09 05:05:30;;;;;;;28.77;18.10;;;7.20;99.90;;;;;;4166012;28;21020;-68
2023/04/09 05:07:32;;;;;;;32.53;18.35;;;7.20;99.90;;;;;;4171207;28;20037;-68
2023/04/09 05:09:33;;;;;;;27.53;15.80;;;7.30;99.90;;;;;;4172699;28;20029;-69
2023/04/09 05:11:33;;;;;;;28.25;16.92;;;7.30;99.90;;;;;;4167676;28;20659;-68
2023/04/09 05:13:34;;;;;;;29.05;15.75;;;7.30;99.90;;;;;;4167493;28;20119;-68
2023/04/09 05:15:40;;;;;;;25.67;15.55;;;7.40;99.90;;;;;;4169076;28;20033;-69
2023/04/09 05:17:44;;;;;;;30.23;17.45;;;7.30;99.90;;;;;;4167876;28;20039;-69
2023/04/09 05:19:50;;;;;;;30.35;17.60;;;7.30;99.90;;;;;;4167275;28;20082;-69
2023/04/09 05:21:51;;;;;;;33.25;18.58;;;7.30;99.90;;;;;;4166544;28;20441;-69
2023/04/09 05:23:51;;;;;;;34.05;19.20;;;7.40;99.90;;;;;;4163087;28;20040;-69
2023/04/09 05:25:52;;;;;;;33.60;18.80;;;7.40;99.90;;;;;;4170854;28;20496;-68
2023/04/09 05:27:52;;;;;;;35.72;19.92;;;7.40;99.90;;;;;;4169955;28;20063;-69
2023/04/09 05:29:53;;;;;;;41.17;22.40;;;7.30;99.90;;;;;;4164553;28;20943;-69
2023/04/09 05:31:53;;;;;;;40.92;23.48;;;7.30;99.90;;;;;;4167676;28;20041;-69
2023/04/09 05:33:54;;;;;;;41.97;23.27;;;7.20;99.90;;;;;;4168938;28;20033;-69
2023/04/09 05:35:55;;;;;;;41.75;22.40;;;7.00;99.90;;;;;;4172005;28;20115;-69
2023/04/09 05:37:55;;;;;;;41.15;22.65;;;6.90;99.90;;;;;;4175299;28;20048;-69
2023/04/09 05:39:56;;;;;;;39.58;20.95;;;6.80;99.90;;;;;;4171148;28;20033;-69
2023/04/09 05:41:57;;;;;;;36.88;20.27;;;6.90;99.90;;;;;;4172673;28;20029;-69
2023/04/09 05:43:57;;;;;;;33.20;19.50;;;6.90;99.90;;;;;;4170539;28;20059;-69
2023/04/09 05:45:58;;;;;;;31.58;18.83;;;6.80;99.90;;;;;;4169829;28;20045;-69
2023/04/09 05:47:58;;;;;;;31.75;19.75;;;6.80;99.90;;;;;;4165127;28;20540;-68
2023/04/09 05:49:59;;;;;;;37.75;20.98;;;6.80;99.90;;;;;;4168387;28;20049;-69
2023/04/09 05:51:59;;;;;;;34.53;20.88;;;6.80;99.90;;;;;;4174387;28;20457;-69
2023/04/09 05:54:00;;;;;;;34.75;19.95;;;6.80;99.90;;;;;;4172607;28;20025;-68
2023/04/09 05:56:00;;;;;;;37.35;21.15;;;6.80;99.90;;;;;;4171256;28;20456;-69
2023/04/09 05:58:01;;;;;;;43.28;22.63;;;6.80;99.90;;;;;;4159567;28;20034;-69
2023/04/09 06:00:02;;;;;;;41.22;23.15;;;6.70;99.90;;;;;;4165082;28;20029;-70
2023/04/09 06:02:02;;;;;;;35.65;21.48;;;6.80;99.90;;;;;;4171532;28;20373;-69
2023/04/09 06:04:03;;;;;;;40.53;22.10;;;6.80;99.90;;;;;;4172347;28;20036;-69
2023/04/09 06:06:04;;;;;;;36.75;20.17;;;6.80;99.90;;;;;;4170143;28;20037;-69
2023/04/09 06:08:05;;;;;;;35.30;19.10;;;6.80;99.90;;;;;;4158136;28;20034;-69
2023/04/09 06:10:06;;;;;;;35.53;20.90;;;6.80;99.90;;;;;;4172132;28;20039;-69
2023/04/09 06:12:07;;;;;;;36.08;20.38;;;6.80;99.90;;;;;;4163884;28;20038;-69
2023/04/09 06:14:07;;;;;;;31.52;18.35;;;6.90;99.90;;;;;;4160030;28;20030;-70
2023/04/09 06:16:09;;;;;;;33.30;19.63;;;7.00;99.90;;;;;;4147053;28;20546;-69
2023/04/09 06:18:09;;;;;;;31.85;18.58;;;7.00;99.90;;;;;;4158265;28;20033;-69
2023/04/09 06:20:10;;;;;;;32.08;18.25;;;7.10;99.90;;;;;;4159368;28;20537;-71
2023/04/09 06:22:11;;;;;;;30.58;18.10;;;7.20;99.90;;;;;;4166048;28;20025;-71
2023/04/09 06:24:11;;;;;;;33.00;19.63;;;7.30;99.90;;;;;;4174778;28;20503;-70
2023/04/09 06:26:12;;;;;;;35.83;20.25;;;7.30;99.90;;;;;;4145754;28;20030;-70
2023/04/09 06:28:13;;;;;;;37.63;22.17;;;7.40;99.90;;;;;;4160766;28;20034;-70
2023/04/09 06:30:13;;;;;;;34.42;20.33;;;7.40;99.90;;;;;;4172216;28;20041;-70
2023/04/09 06:32:14;;;;;;;38.33;22.73;;;7.50;99.90;;;;;;4172856;28;20126;-72
2023/04/09 06:34:14;;;;;;;36.40;22.00;;;7.50;99.90;;;;;;4174153;28;20029;-71
2023/04/09 06:36:15;;;;;;;39.42;22.73;;;7.60;99.90;;;;;;4165470;28;20032;-71
2023/04/09 06:38:16;;;;;;;35.33;20.33;;;7.70;99.90;;;;;;4168769;28;20522;-72
2023/04/09 06:40:17;;;;;;;33.63;19.88;;;8.00;99.90;;;;;;4169580;28;20029;-72
2023/04/09 06:42:17;;;;;;;31.13;19.38;;;8.30;99.90;;;;;;4168741;28;20029;-71
2023/04/09 06:44:18;;;;;;;41.08;23.55;;;8.50;99.90;;;;;;4169209;28;20060;-71
2023/04/09 06:46:20;;;;;;;37.65;21.63;;;8.60;99.90;;;;;;4170373;28;20029;-71
2023/04/09 06:48:20;;;;;;;32.53;20.20;;;8.80;99.90;;;;;;4168022;28;20178;-71
2023/04/09 06:50:21;;;;;;;35.22;21.13;;;9.10;99.90;;;;;;4169931;28;20484;-71
2023/04/09 06:52:21;;;;;;;34.15;21.95;;;9.30;99.90;;;;;;4163636;28;20037;-71
2023/04/09 06:54:22;;;;;;;33.50;20.90;;;9.50;99.90;;;;;;4172766;28;20045;-71
2023/04/09 06:56:22;;;;;;;32.63;20.45;;;9.70;99.90;;;;;;4167457;28;20032;-71
2023/04/09 06:58:23;;;;;;;33.90;20.42;;;10.00;99.90;;;;;;4166239;28;20034;-71
2023/04/09 07:00:24;;;;;;;32.55;19.63;;;10.30;99.90;;;;;;4171500;28;20052;-72
2023/04/09 07:02:25;;;;;;;33.90;20.85;;;10.50;99.90;;;;;;4173046;28;20036;-72
2023/04/09 07:04:26;;;;;;;33.47;21.17;;;10.70;99.90;;;;;;4167881;28;20080;-72
2023/04/09 07:06:26;;;;;;;29.95;19.17;;;11.00;99.90;;;;;;4170667;28;20472;-72
2023/04/09 07:08:27;;;;;;;28.85;19.48;;;11.20;99.90;;;;;;4173322;28;20120;-72
2023/04/09 07:10:28;;;;;;;32.45;19.83;;;11.40;99.90;;;;;;4172951;28;20040;-72
2023/04/09 07:12:30;;;;;;;33.70;20.50;;;11.60;99.90;;;;;;4165422;28;20095;-72
2023/04/09 07:14:31;;;;;;;32.90;20.20;;;11.70;99.90;;;;;;4163832;28;20095;-72
2023/04/09 07:16:31;;;;;;;28.60;18.48;;;11.90;99.90;;;;;;4167835;28;20030;-71
2023/04/09 07:18:32;;;;;;;25.55;16.55;;;12.20;99.90;;;;;;4170136;28;20026;-72
2023/04/09 07:20:33;;;;;;;25.77;16.80;;;12.40;99.90;;;;;;4173836;28;20322;-71
2023/04/09 07:22:35;;;;;;;28.92;18.33;;;12.70;99.90;;;;;;4166583;28;20040;-71
2023/04/09 07:24:36;;;;;;;28.13;17.98;;;12.90;99.90;;;;;;4172854;28;20075;-72
2023/04/09 07:26:36;;;;;;;24.88;15.70;;;13.10;99.90;;;;;;4166924;28;20029;-73
2023/04/09 07:28:37;;;;;;;26.08;17.20;;;13.40;99.90;;;;;;4164918;28;20033;-73
2023/04/09 07:30:40;;;;;;;23.50;14.32;;;13.60;99.90;;;;;;4167685;28;20025;-73
2023/04/09 07:32:40;;;;;;;26.80;15.25;;;13.80;99.90;;;;;;4174149;28;20159;-72
2023/04/09 07:34:42;;;;;;;24.60;15.98;;;14.00;99.90;;;;;;4162108;28;20029;-72
2023/04/09 07:36:43;;;;;;;22.93;14.10;;;14.20;99.90;;;;;;4167515;28;20460;-72
2023/04/09 07:38:43;;;;;;;24.13;15.88;;;14.40;99.90;;;;;;4172637;28;20102;-75
2023/04/09 07:40:44;;;;;;;24.17;15.48;;;14.50;99.90;;;;;;4173870;28;20084;-74
2023/04/09 07:42:44;;;;;;;24.70;15.43;;;14.60;99.90;;;;;;4175244;28;20102;-75
2023/04/09 07:44:46;;;;;;;22.55;14.63;;;14.60;99.90;;;;;;4174353;28;20033;-77
2023/04/09 07:46:46;;;;;;;21.63;13.95;;;14.70;99.90;;;;;;4166573;28;20525;-75
2023/04/09 07:48:48;;;;;;;26.45;15.65;;;14.80;99.90;;;;;;4164083;28;20061;-72
2023/04/09 07:50:49;;;;;;;23.33;15.15;;;14.80;99.90;;;;;;4168743;28;20037;-71
2023/04/09 07:52:50;;;;;;;25.15;15.50;;;14.80;99.90;;;;;;4168264;28;20056;-72
2023/04/09 07:54:50;;;;;;;21.13;14.30;;;14.80;99.90;;;;;;4169392;28;24411;-72
2023/04/09 07:56:51;;;;;;;21.42;14.15;;;14.90;99.90;;;;;;4169240;28;20033;-72
2023/04/09 07:58:52;;;;;;;18.55;12.43;;;14.90;99.90;;;;;;4174230;28;20032;-74
2023/04/09 08:00:52;;;;;;;24.73;14.30;;;14.90;99.90;;;;;;4174341;28;20055;-75
2023/04/09 08:02:53;;;;;;;21.73;14.55;;;14.90;99.90;;;;;;4174844;28;20041;-74
2023/04/09 08:04:53;;;;;;;19.75;14.05;;;14.80;99.90;;;;;;4166405;28;20068;-74
2023/04/09 08:06:54;;;;;;;24.42;15.20;;;14.90;99.90;;;;;;4166939;28;20044;-73
2023/04/09 08:08:55;;;;;;;24.13;15.82;;;14.80;99.90;;;;;;4175222;28;20053;-73
2023/04/09 08:10:55;;;;;;;19.73;12.93;;;14.80;99.90;;;;;;4168793;28;20040;-72
2023/04/09 08:12:56;;;;;;;18.60;12.88;;;14.90;99.90;;;;;;4171455;28;20057;-73
2023/04/09 08:14:56;;;;;;;18.15;13.20;;;14.90;99.90;;;;;;4167901;28;20036;-73
2023/04/09 08:16:58;;;;;;;23.48;14.82;;;14.90;99.90;;;;;;4172606;28;20476;-74
2023/04/09 08:18:59;;;;;;;22.67;14.40;;;14.90;99.90;;;;;;4168522;28;20034;-73
2023/04/09 08:21:03;;;;;;;21.63;12.75;;;14.80;99.90;;;;;;4169432;28;20025;-73
2023/04/09 08:23:04;;;;;;;17.13;11.73;;;14.80;99.90;;;;;;4170686;28;20094;-73
2023/04/09 08:25:05;;;;;;;16.05;10.50;;;14.70;99.90;;;;;;4165651;28;20068;-74
2023/04/09 08:27:06;;;;;;;13.82;9.93;;;14.70;99.90;;;;;;4171561;28;20059;-73
2023/04/09 08:29:07;;;;;;;15.15;10.52;;;14.70;99.90;;;;;;4165248;28;20095;-72
2023/04/09 08:31:08;;;;;;;13.70;10.05;;;14.70;99.90;;;;;;4167303;28;20045;-72
2023/04/09 08:33:09;;;;;;;15.23;10.50;;;14.70;99.90;;;;;;4166245;28;20132;-72
2023/04/09 08:35:10;;;;;;;18.50;11.25;;;14.80;99.90;;;;;;4167432;28;20049;-71
2023/04/09 08:37:10;;;;;;;18.02;11.30;;;14.70;99.90;;;;;;4165043;28;20026;-71
2023/04/09 08:39:11;;;;;;;15.60;10.63;;;14.60;99.90;;;;;;4166536;28;20030;-72
2023/04/09 08:41:18;;;;;;;17.10;10.35;;;14.70;99.90;;;;;;4163335;28;20040;-72
2023/04/09 08:43:22;;;;;;;15.88;10.80;;;14.70;99.90;;;;;;4168629;28;20091;-72
2023/04/09 08:45:23;;;;;;;15.15;10.88;;;14.70;99.90;;;;;;4172759;28;20047;-72
2023/04/09 08:47:24;;;;;;;16.45;10.88;;;14.70;99.90;;;;;;4170102;28;20034;-72
2023/04/09 08:49:25;;;;;;;13.98;9.85;;;14.70;99.90;;;;;;4168400;28;20052;-72
2023/04/09 08:51:27;;;;;;;17.00;11.23;;;14.70;99.90;;;;;;4172479;28;20033;-72
2023/04/09 08:53:28;;;;;;;18.42;11.30;;;14.60;99.90;;;;;;4167259;28;20044;-72
2023/04/09 08:55:30;;;;;;;15.50;10.13;;;14.60;99.90;;;;;;4165028;28;20058;-72
2023/04/09 08:57:36;;;;;;;17.02;11.32;;;14.60;99.90;;;;;;4166743;28;20535;-72
2023/04/09 08:59:37;;;;;;;13.40;9.30;;;14.70;99.90;;;;;;4171470;28;20065;-71
2023/04/09 09:01:37;;;;;;;15.27;10.38;;;14.80;99.90;;;;;;4170559;28;20083;-71
2023/04/09 09:03:55;;;;;;;16.08;10.45;;;14.90;99.90;;;;;;4173401;28;20033;-72
2023/04/09 09:05:55;;;;;;;15.25;9.70;;;14.80;99.90;;;;;;4169553;28;20096;-72
2023/04/09 09:07:57;;;;;;;14.93;10.25;;;14.80;99.90;;;;;;4164245;28;20108;-72
2023/04/09 09:10:01;;;;;;;14.25;9.45;;;14.90;99.90;;;;;;4171671;28;20025;-72
2023/04/09 09:12:02;;;;;;;15.60;10.00;;;14.90;99.90;;;;;;4164690;28;20128;-72
2023/04/09 09:14:08;;;;;;;14.27;9.57;;;14.90;99.90;;;;;;4169917;28;20021;-71
2023/04/09 09:16:14;;;;;;;16.02;10.40;;;14.90;99.90;;;;;;4169211;28;20083;-71
2023/04/09 09:18:16;;;;;;;16.95;11.13;;;14.80;99.90;;;;;;4173344;28;20061;-71
2023/04/09 09:20:21;;;;;;;12.60;9.27;;;14.80;99.90;;;;;;4169563;28;20087;-71
2023/04/09 09:22:21;;;;;;;14.90;9.88;;;14.90;99.90;;;;;;4169711;28;20639;-71
2023/04/09 09:24:22;;;;;;;16.77;10.05;;;14.90;99.90;;;;;;4169596;28;20036;-71
2023/04/09 09:26:26;;;;;;;14.35;10.15;;;14.90;99.90;;;;;;4171931;28;20139;-71
2023/04/09 09:28:35;;;;;;;15.13;10.23;;;14.90;99.90;;;;;;4165423;28;20064;-71
2023/04/09 09:30:38;;;;;;;13.40;9.63;;;15.00;99.90;;;;;;4167202;28;20085;-70
2023/04/09 09:32:38;;;;;;;;;;;15.00;99.90;;;;;;4169945;28;20025;-71
2023/04/09 09:34:39;;;;;;;13.40;9.15;;;15.00;99.90;;;;;;4171618;28;19909;-71
2023/04/09 09:36:39;;;;;;;14.77;9.25;;;15.00;99.90;;;;;;4168113;28;20548;-71
2023/04/09 09:38:57;;;;;;;13.73;8.77;;;14.80;99.90;;;;;;4169069;28;20044;-70
2023/04/09 09:40:58;;;;;;;13.52;8.32;;;14.90;99.90;;;;;;4173390;28;20048;-70
2023/04/09 09:42:58;;;;;;;12.18;8.32;;;14.80;99.90;;;;;;4168654;28;20453;-70
2023/04/09 09:45:00;;;;;;;11.90;8.02;;;14.90;99.90;;;;;;4171920;28;20505;-70
2023/04/09 09:47:02;;;;;;;10.23;6.82;;;14.90;99.90;;;;;;4167834;28;20109;-70
2023/04/09 09:49:04;;;;;;;11.27;7.03;;;14.90;99.90;;;;;;4169624;28;20033;-70
2023/04/09 09:51:10;;;;;;;10.40;6.77;;;14.90;99.90;;;;;;4169061;28;20032;-70
2023/04/09 09:53:13;;;;;;;8.93;6.63;;;15.00;99.90;;;;;;4168696;28;20033;-70
2023/04/09 09:55:14;;;;;;;11.55;7.45;;;15.10;99.90;;;;;;4168612;28;20047;-70
2023/04/09 09:57:18;;;;;;;9.95;7.18;;;15.00;99.90;;;;;;4171038;28;20037;-69
2023/04/09 09:59:21;;;;;;;9.60;6.80;;;15.00;99.90;;;;;;4167259;28;20374;-70
2023/04/09 10:01:25;;;;;;;10.07;7.00;;;15.10;99.90;;;;;;4168167;28;20032;-71
2023/04/09 10:03:30;;;;;;;10.00;7.20;;;15.00;99.90;;;;;;4165714;28;20033;-70
2023/04/09 10:05:34;;;;;;;10.48;6.85;;;15.00;99.90;;;;;;4171771;28;20040;-69
2023/04/09 10:07:36;;;;;;;10.45;7.30;;;15.00;99.90;;;;;;4165119;28;20029;-69
2023/04/09 10:09:47;;;;;;;10.38;6.97;;;14.90;99.90;;;;;;4168629;28;20396;-69
2023/04/09 10:11:48;;;;;;;12.05;7.10;;;14.90;99.90;;;;;;4169342;28;20045;-68
2023/04/09 10:14:07;;;;;;;12.00;8.05;;;14.90;99.90;;;;;;4174931;28;20408;-69
2023/04/09 10:16:08;;;;;;;11.75;7.53;;;14.90;98.90;;;;;;4167989;28;20040;-69
2023/04/09 10:18:08;;;;;;;12.55;6.90;;;14.70;99.30;;;;;;4169807;28;20411;-69
2023/04/09 10:20:18;;;;;;;11.15;6.53;;;14.70;99.10;;;;;;4172435;28;20048;-69
2023/04/09 10:22:24;;;;;;;7.78;5.50;;;14.80;98.80;;;;;;4167554;28;20036;-69
2023/04/09 10:24:25;;;;;;;7.75;5.18;;;14.90;99.90;;;;;;4162978;28;23353;-68
2023/04/09 10:26:26;;;;;;;8.52;5.95;;;15.00;99.80;;;;;;4171068;28;20432;-69